Time;durP1;ratioP1;P1;durP2;ratioP2;P2;SDS_P1;SDS_P2;PMS_P1;PMS_P2;Temp;Humidity;BMP_temperature;BMP_pressure;BME280_temperature;BME280_humidity;BME280_pressure;Samples;Min_cycle;Max_cycle;Signal;HPM_P1;HPM_P2
2022/10/24 00:02:25;;;;;;;21.67;2.90;;;;;;;;;;5094582;28;20305;-81
2022/10/24 00:04:52;;;;;;;21.23;2.60;;;;;;;;;;5099886;28;20229;-80
2022/10/24 00:07:19;;;;;;;22.53;2.97;;;;;;;;;;5109177;28;20199;-80
2022/10/24 00:09:47;;;;;;;18.23;2.93;;;;;;;;;;5101036;28;20284;-81
2022/10/24 00:12:15;;;;;;;21.83;3.23;;;;;;;;;;5103399;28;20675;-80
2022/10/24 00:14:42;;;;;;;22.27;3.53;;;;;;;;;;5101047;28;20284;-80
2022/10/24 00:17:10;;;;;;;24.93;3.33;;;;;;;;;;5113951;28;20251;-80
2022/10/24 00:19:37;;;;;;;20.77;3.20;;;;;;;;;;5099826;28;20628;-80
2022/10/24 00:22:04;;;;;;;21.13;3.33;;;;;;;;;;5095010;28;20222;-80
2022/10/24 00:24:31;;;;;;;23.63;3.50;;;;;;;;;;5099562;28;20222;-81
2022/10/24 00:26:59;;;;;;;21.57;4.00;;;;;;;;;;5096795;28;20359;-80
2022/10/24 00:29:27;;;;;;;26.83;3.90;;;;;;;;;;5111404;28;20305;-80
2022/10/24 00:31:54;;;;;;;23.13;3.83;;;;;;;;;;5112391;28;20347;-80
2022/10/24 00:34:21;;;;;;;19.90;3.30;;;;;;;;;;5107316;28;20242;-80
2022/10/24 00:36:49;;;;;;;19.80;3.07;;;;;;;;;;5112135;28;20283;-80
2022/10/24 00:39:16;;;;;;;21.97;2.77;;;;;;;;;;5111801;28;20833;-81
2022/10/24 00:41:43;;;;;;;20.27;3.13;;;;;;;;;;5094254;28;20261;-81
2022/10/24 00:44:15;;;;;;;18.93;3.40;;;;;;;;;;5101865;28;20230;-81
2022/10/24 00:46:44;;;;;;;23.30;3.57;;;;;;;;;;5112446;28;20221;-81
2022/10/24 00:49:14;;;;;;;20.67;3.43;;;;;;;;;;5093471;28;20620;-81
2022/10/24 00:51:42;;;;;;;21.87;3.70;;;;;;;;;;5112175;28;20284;-81
2022/10/24 00:54:11;;;;;;;22.73;3.70;;;;;;;;;;5101454;28;20285;-81
2022/10/24 00:56:40;;;;;;;27.57;4.40;;;;;;;;;;5096213;28;20226;-82
2022/10/24 00:59:08;;;;;;;22.57;3.50;;;;;;;;;;5107181;28;20213;-81
2022/10/24 01:01:36;;;;;;;30.67;3.63;;;;;;;;;;5103817;28;20748;-80
2022/10/24 01:04:05;;;;;;;18.43;2.93;;;;;;;;;;5099975;28;20221;-81
2022/10/24 01:06:38;;;;;;;18.20;3.43;;;;;;;;;;5104536;28;20236;-81
2022/10/24 01:09:10;;;;;;;18.13;2.90;;;;;;;;;;5098925;28;20678;-81
2022/10/24 01:11:44;;;;;;;11.77;1.90;;;;;;;;;;5100751;28;20615;-81
2022/10/24 01:14:16;;;;;;;10.67;1.90;;;;;;;;;;5094891;28;20228;-80
2022/10/24 01:16:46;;;;;;;9.90;1.67;;;;;;;;;;5093058;28;20750;-80
2022/10/24 01:19:23;;;;;;;7.17;1.37;;;;;;;;;;5107887;28;20280;-81
2022/10/24 01:21:53;;;;;;;6.97;1.20;;;;;;;;;;5109080;28;20256;-81
2022/10/24 01:24:32;;;;;;;5.20;1.00;;;;;;;;;;5094607;28;20636;-80
2022/10/24 01:27:07;;;;;;;5.57;0.93;;;;;;;;;;5107222;28;20615;-80
2022/10/24 01:29:45;;;;;;;4.53;0.80;;;;;;;;;;5104580;28;20237;-80
2022/10/24 01:32:15;;;;;;;4.07;1.03;;;;;;;;;;5092794;28;20289;-80
2022/10/24 01:34:45;;;;;;;7.73;1.03;;;;;;;;;;5111486;28;20284;-80
2022/10/24 01:37:16;;;;;;;7.07;1.20;;;;;;;;;;5094405;28;20237;-80
2022/10/24 01:39:46;;;;;;;4.40;0.70;;;;;;;;;;5101709;28;20722;-80
2022/10/24 01:42:15;;;;;;;3.70;0.80;;;;;;;;;;5093772;28;20317;-80
2022/10/24 01:44:47;;;;;;;5.07;0.80;;;;;;;;;;5106780;28;20293;-81
2022/10/24 01:47:16;;;;;;;4.67;0.87;;;;;;;;;;5092988;28;20230;-80
2022/10/24 01:49:45;;;;;;;5.10;0.60;;;;;;;;;;5103824;28;20229;-81
2022/10/24 01:52:14;;;;;;;3.70;0.83;;;;;;;;;;5092531;28;20256;-80
2022/10/24 01:54:42;;;;;;;4.10;0.60;;;;;;;;;;5100964;28;20240;-80
2022/10/24 01:57:10;;;;;;;5.77;0.70;;;;;;;;;;5097675;28;20277;-80
2022/10/24 01:59:41;;;;;;;5.60;0.80;;;;;;;;;;5096389;28;20230;-80
2022/10/24 02:02:12;;;;;;;7.40;0.80;;;;;;;;;;5098789;28;20225;-80
2022/10/24 02:04:43;;;;;;;4.27;0.80;;;;;;;;;;5101074;28;20208;-80
2022/10/24 02:07:12;;;;;;;3.93;0.63;;;;;;;;;;5095393;28;20233;-80
2022/10/24 02:09:41;;;;;;;2.67;0.70;;;;;;;;;;5096434;28;20280;-80
2022/10/24 02:12:09;;;;;;;3.43;0.73;;;;;;;;;;5110008;28;20221;-80
2022/10/24 02:14:39;;;;;;;4.93;0.80;;;;;;;;;;5102582;28;20708;-80
2022/10/24 02:17:07;;;;;;;4.10;0.90;;;;;;;;;;5093383;28;20285;-79
2022/10/24 02:19:36;;;;;;;3.07;0.67;;;;;;;;;;5092874;28;20257;-80
2022/10/24 02:22:10;;;;;;;4.17;0.70;;;;;;;;;;5096025;28;20204;-80
2022/10/24 02:24:42;;;;;;;6.93;0.93;;;;;;;;;;5102164;28;20229;-80
2022/10/24 02:27:12;;;;;;;4.17;0.70;;;;;;;;;;5096498;28;20217;-80
2022/10/24 02:29:42;;;;;;;3.40;0.67;;;;;;;;;;5100330;28;20308;-80
2022/10/24 02:32:11;;;;;;;2.50;0.60;;;;;;;;;;5102889;28;20280;-80
2022/10/24 02:34:40;;;;;;;6.77;0.97;;;;;;;;;;5105950;28;20229;-80
2022/10/24 02:37:09;;;;;;;7.20;1.00;;;;;;;;;;5092807;28;20190;-80
2022/10/24 02:39:36;;;;;;;5.43;0.90;;;;;;;;;;5094158;28;20238;-80
2022/10/24 02:42:05;;;;;;;5.70;1.07;;;;;;;;;;5104972;28;20241;-79
2022/10/24 02:44:32;;;;;;;7.63;1.60;;;;;;;;;;5110097;28;20313;-80
2022/10/24 02:47:01;;;;;;;6.80;1.10;;;;;;;;;;5107257;28;20229;-79
2022/10/24 02:49:28;;;;;;;6.63;1.50;;;;;;;;;;5108811;28;20288;-79
2022/10/24 02:51:57;;;;;;;5.00;1.07;;;;;;;;;;5095121;28;20285;-79
2022/10/24 02:54:24;;;;;;;8.27;1.13;;;;;;;;;;5105219;28;20285;-79
2022/10/24 02:56:52;;;;;;;8.53;1.10;;;;;;;;;;5110055;28;20226;-80
2022/10/24 02:59:20;;;;;;;6.57;1.03;;;;;;;;;;5112457;28;20281;-80
2022/10/24 03:01:47;;;;;;;8.70;1.70;;;;;;;;;;5104737;28;20285;-79
2022/10/24 03:04:14;;;;;;;7.40;1.33;;;;;;;;;;5091537;28;20261;-79
2022/10/24 03:06:41;;;;;;;5.97;1.13;;;;;;;;;;5093071;28;20285;-80
2022/10/24 03:09:10;;;;;;;7.10;1.10;;;;;;;;;;5097921;28;20221;-79
2022/10/24 03:11:37;;;;;;;6.27;1.20;;;;;;;;;;5105859;28;20740;-80
2022/10/24 03:14:04;;;;;;;9.47;1.10;;;;;;;;;;5099232;28;20260;-79
2022/10/24 03:16:32;;;;;;;6.57;1.53;;;;;;;;;;5095738;28;20234;-80
2022/10/24 03:18:59;;;;;;;5.77;1.10;;;;;;;;;;5095506;28;20241;-79
2022/10/24 03:21:26;;;;;;;6.23;1.00;;;;;;;;;;5099361;28;20641;-79
2022/10/24 03:23:53;;;;;;;6.23;1.20;;;;;;;;;;5109206;28;20301;-79
2022/10/24 03:26:22;;;;;;;5.43;1.10;;;;;;;;;;5112209;28;20243;-79
2022/10/24 03:28:49;;;;;;;7.17;1.17;;;;;;;;;;5111748;28;20300;-79
2022/10/24 03:31:16;;;;;;;6.53;0.97;;;;;;;;;;5098816;28;20229;-79
2022/10/24 03:33:43;;;;;;;5.43;1.37;;;;;;;;;;5105540;28;20232;-79
2022/10/24 03:36:11;;;;;;;7.80;1.50;;;;;;;;;;5102580;28;20285;-79
2022/10/24 03:38:38;;;;;;;7.37;1.37;;;;;;;;;;5094422;28;20230;-79
2022/10/24 03:41:05;;;;;;;7.83;1.30;;;;;;;;;;5103270;28;20272;-79
2022/10/24 03:43:34;;;;;;;8.70;1.10;;;;;;;;;;5108361;28;20666;-79
2022/10/24 03:46:01;;;;;;;8.60;1.30;;;;;;;;;;5100327;28;20290;-79
2022/10/24 03:48:28;;;;;;;12.60;1.90;;;;;;;;;;5098508;28;20689;-79
2022/10/24 03:50:56;;;;;;;8.63;1.67;;;;;;;;;;5106967;28;20198;-79
2022/10/24 03:53:23;;;;;;;10.67;1.87;;;;;;;;;;5100661;28;20222;-79
2022/10/24 03:55:50;;;;;;;10.97;2.00;;;;;;;;;;5097647;28;20289;-80
2022/10/24 03:58:17;;;;;;;10.53;1.73;;;;;;;;;;5100085;28;20676;-80
2022/10/24 04:00:46;;;;;;;8.07;1.60;;;;;;;;;;5107735;28;20286;-80
2022/10/24 04:03:13;;;;;;;9.93;1.60;;;;;;;;;;5104887;28;20256;-80
2022/10/24 04:05:41;;;;;;;10.17;1.50;;;;;;;;;;5102189;28;20281;-79
2022/10/24 04:08:08;;;;;;;9.63;1.60;;;;;;;;;;5106932;28;20225;-80
2022/10/24 04:10:35;;;;;;;11.53;2.10;;;;;;;;;;5094480;28;20673;-80
2022/10/24 04:13:02;;;;;;;11.50;1.67;;;;;;;;;;5093855;28;20219;-80
2022/10/24 04:15:29;;;;;;;10.80;2.00;;;;;;;;;;5094847;28;20230;-79
2022/10/24 04:17:58;;;;;;;11.90;1.80;;;;;;;;;;5094307;28;20241;-80
2022/10/24 04:20:25;;;;;;;10.20;1.90;;;;;;;;;;5094295;28;20241;-81
2022/10/24 04:22:53;;;;;;;10.93;1.90;;;;;;;;;;5094006;28;20266;-80
2022/10/24 04:25:20;;;;;;;8.97;1.70;;;;;;;;;;5093616;28;20273;-80
2022/10/24 04:27:47;;;;;;;11.07;1.70;;;;;;;;;;5093217;28;20275;-80
2022/10/24 04:30:15;;;;;;;13.07;1.93;;;;;;;;;;5093585;28;20267;-80
2022/10/24 04:32:42;;;;;;;13.27;2.30;;;;;;;;;;5094910;28;20648;-80
2022/10/24 04:35:11;;;;;;;11.33;2.10;;;;;;;;;;5105698;28;20226;-80
2022/10/24 04:37:38;;;;;;;17.20;2.30;;;;;;;;;;5106150;28;20632;-80
2022/10/24 04:40:06;;;;;;;9.83;2.00;;;;;;;;;;5113534;28;20237;-80
2022/10/24 04:42:33;;;;;;;12.37;1.93;;;;;;;;;;5102765;28;20329;-80
2022/10/24 04:45:00;;;;;;;12.30;2.40;;;;;;;;;;5111103;28;20205;-81
2022/10/24 04:47:27;;;;;;;13.47;2.33;;;;;;;;;;5098817;28;20285;-80
2022/10/24 04:49:54;;;;;;;16.77;2.70;;;;;;;;;;5102927;28;20284;-81
2022/10/24 04:52:23;;;;;;;14.40;2.23;;;;;;;;;;5112609;28;20281;-80
2022/10/24 04:54:50;;;;;;;18.70;2.70;;;;;;;;;;5112707;28;20234;-80
2022/10/24 04:57:17;;;;;;;12.93;2.20;;;;;;;;;;5130706;27;20240;-80
2022/10/24 04:59:45;;;;;;;19.83;2.70;;;;;;;;;;5103900;28;20289;-80
2022/10/24 05:02:12;;;;;;;18.13;2.57;;;;;;;;;;5103879;28;20248;-80
2022/10/24 05:04:39;;;;;;;18.43;2.97;;;;;;;;;;5094455;28;20297;-80
2022/10/24 05:07:06;;;;;;;16.57;3.07;;;;;;;;;;5099061;28;20281;-79
2022/10/24 05:09:35;;;;;;;16.93;3.47;;;;;;;;;;5111174;28;20205;-81
2022/10/24 05:12:02;;;;;;;23.63;3.63;;;;;;;;;;5097780;28;20317;-80
2022/10/24 05:14:29;;;;;;;19.37;2.77;;;;;;;;;;5103528;28;20226;-79
2022/10/24 05:16:57;;;;;;;22.50;3.60;;;;;;;;;;5111466;28;20288;-83
2022/10/24 05:19:24;;;;;;;22.67;4.37;;;;;;;;;;5099895;28;20617;-81
2022/10/24 05:21:51;;;;;;;22.03;3.20;;;;;;;;;;5101956;28;20236;-80
2022/10/24 05:24:18;;;;;;;19.83;3.80;;;;;;;;;;5093089;28;20250;-80
2022/10/24 05:26:47;;;;;;;22.40;3.40;;;;;;;;;;5092599;28;20240;-80
2022/10/24 05:29:14;;;;;;;26.20;3.57;;;;;;;;;;5097556;28;20308;-80
2022/10/24 05:31:41;;;;;;;21.40;3.83;;;;;;;;;;5100580;28;20222;-80
2022/10/24 05:34:08;;;;;;;21.80;3.60;;;;;;;;;;5108624;28;20278;-80
2022/10/24 05:36:35;;;;;;;24.27;3.50;;;;;;;;;;5112322;28;20277;-79
2022/10/24 05:39:02;;;;;;;22.67;3.90;;;;;;;;;;5104625;28;20228;-79
2022/10/24 05:41:30;;;;;;;26.47;3.73;;;;;;;;;;5100833;28;20225;-79
2022/10/24 05:43:58;;;;;;;21.17;3.83;;;;;;;;;;5110268;28;20253;-79
2022/10/24 05:46:25;;;;;;;24.63;3.23;;;;;;;;;;5101477;28;20297;-80
2022/10/24 05:48:53;;;;;;;21.97;3.70;;;;;;;;;;5110476;28;20241;-79
2022/10/24 05:51:20;;;;;;;25.57;3.50;;;;;;;;;;5092158;28;20226;-79
2022/10/24 05:53:47;;;;;;;20.33;3.70;;;;;;;;;;5104483;28;20273;-79
2022/10/24 05:56:14;;;;;;;26.57;3.73;;;;;;;;;;5105046;28;20226;-79
2022/10/24 05:58:41;;;;;;;26.90;3.67;;;;;;;;;;5094210;28;20279;-79
2022/10/24 06:01:10;;;;;;;23.13;4.00;;;;;;;;;;5095015;28;20285;-79
2022/10/24 06:03:38;;;;;;;28.47;4.13;;;;;;;;;;5102393;28;20297;-79
2022/10/24 06:06:06;;;;;;;21.37;3.87;;;;;;;;;;5092804;28;20191;-79
2022/10/24 06:08:34;;;;;;;26.50;3.63;;;;;;;;;;5106485;28;20228;-79
2022/10/24 06:11:01;;;;;;;22.53;3.83;;;;;;;;;;5104601;28;20672;-79
2022/10/24 06:13:28;;;;;;;30.17;4.23;;;;;;;;;;5091936;28;20273;-79
2022/10/24 06:15:56;;;;;;;24.30;3.73;;;;;;;;;;5103127;28;20240;-79
2022/10/24 06:18:24;;;;;;;24.27;3.83;;;;;;;;;;5112546;28;20198;-79
2022/10/24 06:20:51;;;;;;;19.50;3.10;;;;;;;;;;5108958;28;20665;-80
2022/10/24 06:23:19;;;;;;;15.83;2.87;;;;;;;;;;5104533;28;20194;-80
2022/10/24 06:25:46;;;;;;;23.33;3.30;;;;;;;;;;5103528;28;20280;-80
2022/10/24 06:28:13;;;;;;;19.83;3.37;;;;;;;;;;5112328;28;20754;-80
2022/10/24 06:30:41;;;;;;;18.03;3.47;;;;;;;;;;5101025;28;20214;-80
2022/10/24 06:33:08;;;;;;;23.40;3.07;;;;;;;;;;5102031;28;20201;-79
2022/10/24 06:35:37;;;;;;;22.93;3.43;;;;;;;;;;5111478;28;20292;-80
2022/10/24 06:38:04;;;;;;;18.13;3.17;;;;;;;;;;5105974;28;20255;-80
2022/10/24 06:40:31;;;;;;;22.37;3.20;;;;;;;;;;5092034;28;20202;-79
2022/10/24 06:42:59;;;;;;;19.43;2.87;;;;;;;;;;5107265;28;20278;-79
2022/10/24 06:45:26;;;;;;;17.90;3.10;;;;;;;;;;5094087;28;20254;-79
2022/10/24 06:47:53;;;;;;;15.27;2.60;;;;;;;;;;5096446;28;20210;-80
2022/10/24 06:50:21;;;;;;;16.70;2.87;;;;;;;;;;5115622;28;20251;-79
2022/10/24 06:52:49;;;;;;;19.73;3.23;;;;;;;;;;5104132;28;20289;-80
2022/10/24 06:55:16;;;;;;;18.63;2.83;;;;;;;;;;5100014;28;20281;-80
2022/10/24 06:57:44;;;;;;;13.80;2.27;;;;;;;;;;5095726;28;20233;-79
2022/10/24 07:00:13;;;;;;;16.40;3.07;;;;;;;;;;5109113;28;20228;-79
2022/10/24 07:02:40;;;;;;;18.50;2.97;;;;;;;;;;5108476;28;20223;-79
2022/10/24 07:05:11;;;;;;;17.00;2.80;;;;;;;;;;5115194;28;21951;-79
2022/10/24 07:07:39;;;;;;;20.97;2.70;;;;;;;;;;5105233;28;20251;-80
2022/10/24 07:10:09;;;;;;;21.53;2.90;;;;;;;;;;5103099;28;20202;-80
2022/10/24 07:12:36;;;;;;;22.30;3.27;;;;;;;;;;5106436;28;20233;-79
2022/10/24 07:15:03;;;;;;;25.17;3.40;;;;;;;;;;5102099;28;20239;-79
2022/10/24 07:17:31;;;;;;;16.67;2.53;;;;;;;;;;5098735;28;20285;-81
2022/10/24 07:19:58;;;;;;;17.03;2.90;;;;;;;;;;5109711;28;20685;-80
2022/10/24 07:22:26;;;;;;;18.43;3.13;;;;;;;;;;5099487;28;20248;-81
2022/10/24 07:24:54;;;;;;;17.20;2.67;;;;;;;;;;5110410;28;20254;-80
2022/10/24 07:27:22;;;;;;;17.87;2.77;;;;;;;;;;5107172;28;20198;-81
2022/10/24 07:29:50;;;;;;;18.77;2.90;;;;;;;;;;5110353;28;20293;-80
2022/10/24 07:32:17;;;;;;;20.47;3.23;;;;;;;;;;5115162;28;20202;-79
2022/10/24 07:34:46;;;;;;;25.77;3.33;;;;;;;;;;5114021;28;20293;-79
2022/10/24 07:37:13;;;;;;;17.30;3.20;;;;;;;;;;5114008;28;20197;-78
2022/10/24 07:39:41;;;;;;;23.67;3.17;;;;;;;;;;5105126;28;20256;-79
2022/10/24 07:42:08;;;;;;;23.23;3.17;;;;;;;;;;5094353;28;20194;-80
2022/10/24 07:44:36;;;;;;;18.43;3.13;;;;;;;;;;5108190;28;20300;-79
2022/10/24 07:47:06;;;;;;;16.90;3.10;;;;;;;;;;5109806;28;20280;-79
2022/10/24 07:49:33;;;;;;;20.73;3.10;;;;;;;;;;5105607;28;20258;-80
2022/10/24 07:52:00;;;;;;;22.57;3.30;;;;;;;;;;5109640;28;20280;-79
2022/10/24 07:54:28;;;;;;;21.03;3.30;;;;;;;;;;5105500;28;20192;-80
2022/10/24 07:56:56;;;;;;;15.43;2.67;;;;;;;;;;5107195;28;20216;-80
2022/10/24 07:59:23;;;;;;;23.73;3.30;;;;;;;;;;5106111;28;20745;-80
2022/10/24 08:01:51;;;;;;;17.77;2.93;;;;;;;;;;5107517;28;20197;-80
2022/10/24 08:04:19;;;;;;;18.00;2.90;;;;;;;;;;5108876;28;20658;-80
2022/10/24 08:06:46;;;;;;;21.20;3.13;;;;;;;;;;5107863;28;20869;-80
2022/10/24 08:09:13;;;;;;;14.03;2.87;;;;;;;;;;5108306;28;20765;-80
2022/10/24 08:11:40;;;;;;;14.13;3.03;;;;;;;;;;5109962;28;21023;-80
2022/10/24 08:14:08;;;;;;;12.03;2.40;;;;;;;;;;5109613;28;20200;-78
2022/10/24 08:16:37;;;;;;;18.33;3.03;;;;;;;;;;5105663;28;20289;-80
2022/10/24 08:19:05;;;;;;;11.43;2.03;;;;;;;;;;5100417;28;20975;-81
2022/10/24 08:21:33;;;;;;;14.30;2.40;;;;;;;;;;5105271;28;20281;-81
2022/10/24 08:24:01;;;;;;;11.38;1.98;;;;;;;;;;5107479;28;20204;-82
2022/10/24 08:26:28;;;;;;;12.02;1.85;;;;;;;;;;5109541;28;20282;-80
2022/10/24 08:28:56;;;;;;;14.00;2.35;;;;;;;;;;5105857;28;20301;-80
2022/10/24 08:31:24;;;;;;;13.82;2.40;;;;;;;;;;5109744;28;20208;-80
2022/10/24 08:33:52;;;;;;;10.65;1.92;;;;;;;;;;5108133;28;20289;-76
2022/10/24 08:36:22;;;;;;;13.63;2.38;;;;;;;;;;5098126;28;20234;-76
2022/10/24 08:38:50;;;;;;;11.60;2.38;;;;;;;;;;5106354;28;20209;-76
2022/10/24 08:41:23;;;;;;;16.20;2.40;;;;;;;;;;5104745;28;20286;-76
2022/10/24 08:43:50;;;;;;;14.57;2.55;;;;;;;;;;5102173;28;20624;-76
2022/10/24 08:46:24;;;;;;;15.82;2.40;;;;;;;;;;5102817;28;20296;-76
2022/10/24 08:48:54;;;;;;;14.55;2.65;;;;;;;;;;5104953;28;20225;-76
2022/10/24 08:51:27;;;;;;;13.80;2.53;;;;;;;;;;5105714;28;20281;-77
2022/10/24 08:53:55;;;;;;;15.13;2.85;;;;;;;;;;5102028;28;20287;-76
2022/10/24 08:56:22;;;;;;;12.55;2.20;;;;;;;;;;5101746;28;20235;-76
2022/10/24 08:58:51;;;;;;;14.88;2.85;;;;;;;;;;5106977;28;20756;-75
2022/10/24 09:01:28;;;;;;;16.30;2.85;;;;;;;;;;5095887;28;20256;-75
2022/10/24 09:03:59;;;;;;;18.63;2.77;;;;;;;;;;5098523;28;20205;-75
2022/10/24 09:06:28;;;;;;;11.80;2.37;;;;;;;;;;5091661;28;20230;-75
2022/10/24 09:08:58;;;;;;;19.87;2.80;;;;;;;;;;5094571;28;20628;-75
2022/10/24 09:11:27;;;;;;;12.68;1.90;;;;;;;;;;5093851;28;20232;-74
2022/10/24 09:13:55;;;;;;;18.23;2.58;;;;;;;;;;5098743;28;20285;-74
2022/10/24 09:16:23;;;;;;;9.67;1.97;;;;;;;;;;5108955;28;20225;-75
2022/10/24 09:18:52;;;;;;;15.50;2.67;;;;;;;;;;5103524;28;20295;-75
2022/10/24 09:21:19;;;;;;;9.88;2.05;;;;;;;;;;5103537;28;20218;-75
2022/10/24 09:23:49;;;;;;;16.20;2.33;;;;;;;;;;5106303;28;20289;-75
2022/10/24 09:26:20;;;;;;;11.93;2.20;;;;;;;;;;5104100;28;20244;-75
2022/10/24 09:28:47;;;;;;;15.70;1.85;;;;;;;;;;5108470;28;20214;-75
2022/10/24 09:31:17;;;;;;;12.40;2.15;;;;;;;;;;5097388;28;20222;-75
2022/10/24 09:33:45;;;;;;;14.32;2.47;;;;;;;;;;5101031;28;20258;-74
2022/10/24 09:36:13;;;;;;;12.65;1.92;;;;;;;;;;5103408;28;20281;-75
2022/10/24 09:38:41;;;;;;;12.95;2.28;;;;;;;;;;5100854;28;20205;-74
2022/10/24 09:41:16;;;;;;;9.98;2.10;;;;;;;;;;5105063;28;20281;-75
2022/10/24 09:43:49;;;;;;;9.00;2.30;;;;;;;;;;5104179;28;20296;-76
2022/10/24 09:46:17;;;;;;;12.27;1.60;;;;;;;;;;5096545;28;20221;-77
2022/10/24 09:48:52;;;;;;;10.68;2.20;;;;;;;;;;5099517;28;20288;-78
2022/10/24 09:51:21;;;;;;;11.25;1.88;;;;;;;;;;5103087;28;20228;-78
2022/10/24 09:54:00;;;;;;;8.05;1.88;;;;;;;;;;5100555;28;20225;-76
2022/10/24 09:56:34;;;;;;;7.38;1.92;;;;;;;;;;5101375;27;20285;-77
2022/10/24 09:59:18;;;;;;;10.68;2.05;;;;;;;;;;5090379;28;20205;-77
2022/10/24 10:01:49;;;;;;;11.32;2.13;;;;;;;;;;5094256;28;20219;-77
2022/10/24 10:04:20;;;;;;;11.75;1.77;;;;;;;;;;5095172;28;20209;-77
2022/10/24 10:06:48;;;;;;;11.75;2.47;;;;;;;;;;5102501;28;20277;-77
2022/10/24 10:09:17;;;;;;;7.68;1.83;;;;;;;;;;5103734;28;20219;-77
2022/10/24 10:11:45;;;;;;;10.50;2.03;;;;;;;;;;5100478;28;20238;-77
2022/10/24 10:14:22;;;;;;;10.77;2.08;;;;;;;;;;5098930;28;20233;-76
2022/10/24 10:16:59;;;;;;;9.27;1.60;;;;;;;;;;5103735;28;20583;-78
2022/10/24 10:19:26;;;;;;;11.45;2.22;;;;;;;;;;5108896;28;20208;-76
2022/10/24 10:21:55;;;;;;;8.82;1.90;;;;;;;;;;5103918;28;20244;-77
2022/10/24 10:24:27;;;;;;;10.57;1.92;;;;;;;;;;5098116;28;20281;-77
2022/10/24 10:26:55;;;;;;;11.98;2.42;;;;;;;;;;5107518;28;20209;-77
2022/10/24 10:29:24;;;;;;;9.48;1.85;;;;;;;;;;5103365;28;20626;-77
2022/10/24 10:31:53;;;;;;;10.32;1.95;;;;;;;;;;5096981;28;20256;-77
2022/10/24 10:34:22;;;;;;;8.73;1.90;;;;;;;;;;5099169;28;20289;-75
2022/10/24 10:37:03;;;;;;;11.23;2.13;;;;;;;;;;5100984;28;20190;-75
2022/10/24 10:39:38;;;;;;;7.55;1.63;;;;;;;;;;5101306;28;20744;-76
2022/10/24 10:42:11;;;;;;;11.10;2.20;;;;;;;;;;5103637;28;20221;-77
2022/10/24 10:44:57;;;;;;;9.52;2.28;;;;;;;;;;5103084;28;20194;-76
2022/10/24 10:47:34;;;;;;;11.88;2.10;;;;;;;;;;5091559;28;20194;-77
2022/10/24 10:50:02;;;;;;;9.20;2.25;;;;;;;;;;5091497;28;20589;-77
2022/10/24 10:52:31;;;;;;;11.52;2.22;;;;;;;;;;5091772;28;20293;-77
2022/10/24 10:55:08;;;;;;;10.57;2.08;;;;;;;;;;5090973;28;20237;-77
2022/10/24 10:57:40;;;;;;;11.68;2.40;;;;;;;;;;5106151;28;20236;-77
2022/10/24 11:00:09;;;;;;;12.95;1.88;;;;;;;;;;5108259;28;20229;-77
2022/10/24 11:02:55;;;;;;;8.35;1.73;;;;;;;;;;5103063;28;20578;-77
2022/10/24 11:05:39;;;;;;;8.10;1.70;;;;;;;;;;5100681;28;20246;-77
2022/10/24 11:08:11;;;;;;;8.35;1.75;;;;;;;;;;5091834;28;20217;-77
2022/10/24 11:10:41;;;;;;;6.55;1.50;;;;;;;;;;5107805;28;20289;-77
2022/10/24 11:13:15;;;;;;;8.05;1.33;;;;;;;;;;5106379;28;20312;-77
2022/10/24 11:15:45;;;;;;;9.48;1.60;;;;;;;;;;5093040;28;20237;-77
2022/10/24 11:18:13;;;;;;;9.38;1.63;;;;;;;;;;5094384;28;20635;-76
2022/10/24 11:20:40;;;;;;;8.70;1.38;;;;;;;;;;5102877;28;20744;-77
2022/10/24 11:23:13;;;;;;;7.60;1.50;;;;;;;;;;5097421;28;20225;-78
2022/10/24 11:25:42;;;;;;;8.85;1.38;;;;;;;;;;5106080;28;20256;-78
2022/10/24 11:28:16;;;;;;;8.18;1.30;;;;;;;;;;5107504;28;20297;-77
2022/10/24 11:30:46;;;;;;;5.88;1.50;;;;;;;;;;5097185;28;20287;-77
2022/10/24 11:33:17;;;;;;;7.32;1.80;;;;;;;;;;5110890;28;21589;-77
2022/10/24 11:35:57;;;;;;;7.00;1.30;;;;;;;;;;5102580;28;20190;-78
2022/10/24 11:38:25;;;;;;;6.75;1.20;;;;;;;;;;5107579;28;20222;-77
2022/10/24 11:40:54;;;;;;;7.18;1.33;;;;;;;;;;5105826;28;20235;-77
2022/10/24 11:43:25;;;;;;;7.13;1.70;;;;;;;;;;5101562;28;20259;-77
2022/10/24 11:45:59;;;;;;;6.47;1.27;;;;;;;;;;5104698;28;20225;-78
2022/10/24 11:48:31;;;;;;;5.10;1.45;;;;;;;;;;5099563;28;20281;-78
2022/10/24 11:51:00;;;;;;;5.10;1.13;;;;;;;;;;5098235;28;20689;-78
2022/10/24 11:53:44;;;;;;;6.05;1.35;;;;;;;;;;5099985;28;20221;-76
2022/10/24 11:56:16;;;;;;;10.50;1.83;;;;;;;;;;5111340;28;20239;-77
2022/10/24 11:58:49;;;;;;;8.48;3.35;;;;;;;;;;5105474;28;20198;-78
2022/10/24 12:01:22;;;;;;;9.90;5.72;;;;;;;;;;5109914;28;20290;-77
2022/10/24 12:04:08;;;;;;;7.85;3.08;;;;;;;;;;5097903;28;20233;-78
2022/10/24 12:06:55;;;;;;;8.73;2.20;;;;;;;;;;5098130;28;20253;-76
2022/10/24 12:09:38;;;;;;;3.47;1.40;;;;;;;;;;5018835;28;20284;-77
2022/10/24 12:12:17;;;;;;;7.18;1.70;;;;;;;;;;5025639;28;20320;-77
2022/10/24 12:14:52;;;;;;;11.48;1.85;;;;;;;;;;5017090;28;20208;-77
2022/10/24 12:17:32;;;;;;;6.97;1.55;;;;;;;;;;5022841;28;20342;-80
2022/10/24 12:20:01;;;;;;;11.10;1.50;;;;;;;;;;5023028;28;20240;-80
2022/10/24 12:22:31;;;;;;;7.03;1.40;;;;;;;;;;5019024;28;20783;-79
2022/10/24 12:25:06;;;;;;;6.18;1.40;;;;;;;;;;5014214;28;20290;-80
2022/10/24 12:27:35;;;;;;;5.88;1.65;;;;;;;;;;5014369;28;20233;-81
2022/10/24 12:30:06;;;;;;;8.93;2.47;;;;;;;;;;5021178;28;20260;-81
2022/10/24 12:32:37;;;;;;;9.75;1.80;;;;;;;;;;5023495;28;20299;-80
2022/10/24 12:35:26;;;;;;;8.95;2.03;;;;;;;;;;5014827;28;20229;-81
2022/10/24 12:37:55;;;;;;;8.73;1.95;;;;;;;;;;5018525;28;20200;-81
2022/10/24 12:40:40;;;;;;;7.53;1.75;;;;;;;;;;5015737;28;20224;-81
2022/10/24 12:43:13;;;;;;;8.73;2.35;;;;;;;;;;5016103;28;20204;-78
2022/10/24 12:45:40;;;;;;;10.45;2.28;;;;;;;;;;5032693;28;20769;-78
2022/10/24 12:48:15;;;;;;;8.40;1.73;;;;;;;;;;5097529;28;20722;-78
2022/10/24 12:50:57;;;;;;;8.82;1.40;;;;;;;;;;5102361;28;20285;-78
2022/10/24 12:53:33;;;;;;;7.07;1.33;;;;;;;;;;5101308;28;20200;-78
2022/10/24 12:56:17;;;;;;;8.52;1.67;;;;;;;;;;5103957;28;20234;-78
2022/10/24 12:58:46;;;;;;;8.90;1.60;;;;;;;;;;5103523;28;20255;-78
2022/10/24 13:01:24;;;;;;;6.88;1.52;;;;;;;;;;5097594;28;20252;-77
2022/10/24 13:04:09;;;;;;;6.38;1.60;;;;;;;;;;5103423;28;20251;-78
2022/10/24 13:06:38;;;;;;;5.72;1.20;;;;;;;;;;5062819;28;20277;-78
2022/10/24 13:09:16;;;;;;;7.80;1.83;;;;;;;;;;5062644;28;20695;-78
2022/10/24 13:11:49;;;;;;;6.32;1.50;;;;;;;;;;5057055;28;20267;-78
2022/10/24 13:14:23;;;;;;;6.40;1.70;;;;;;;;;;5058894;28;20242;-78
2022/10/24 13:16:57;;;;;;;8.65;2.00;;;;;;;;;;5064505;28;20290;-78
2022/10/24 13:19:25;;;;;;;5.97;1.52;;;;;;;;;;5050925;28;20206;-78
2022/10/24 13:21:54;;;;;;;6.05;1.50;;;;;;;;;;5054490;28;20286;-78
2022/10/24 13:24:32;;;;;;;9.90;1.50;;;;;;;;;;5052062;28;20596;-78
2022/10/24 13:27:25;;;;;;;8.82;1.73;;;;;;;;;;5053140;28;20354;-79
2022/10/24 13:30:23;;;;;;;6.15;1.70;;;;;;;;;;5053247;28;20219;-79
2022/10/24 13:32:51;;;;;;;6.47;1.77;;;;;;;;;;5062942;28;20215;-78
2022/10/24 13:35:21;;;;;;;6.90;1.85;;;;;;;;;;5058312;28;20207;-77
2022/10/24 13:37:53;;;;;;;7.32;1.67;;;;;;;;;;5061675;28;20249;-78
2022/10/24 13:40:28;;;;;;;6.20;1.35;;;;;;;;;;5057375;28;20732;-77
2022/10/24 13:42:57;;;;;;;9.70;2.10;;;;;;;;;;5066221;28;20277;-77
2022/10/24 13:45:27;;;;;;;9.07;1.60;;;;;;;;;;5109477;28;20684;-77
2022/10/24 13:47:56;;;;;;;9.60;1.50;;;;;;;;;;5108297;28;20202;-77
2022/10/24 13:50:27;;;;;;;9.48;1.55;;;;;;;;;;5097669;28;20281;-77
2022/10/24 13:52:57;;;;;;;7.72;1.52;;;;;;;;;;5109082;28;20229;-77
2022/10/24 13:55:28;;;;;;;8.90;1.85;;;;;;;;;;5108968;28;20288;-78
2022/10/24 13:57:59;;;;;;;6.05;1.83;;;;;;;;;;5108233;28;20237;-78
2022/10/24 14:00:27;;;;;;;6.50;1.60;;;;;;;;;;5107223;28;20234;-78
2022/10/24 14:02:56;;;;;;;7.78;1.45;;;;;;;;;;5108498;28;20289;-78
2022/10/24 14:05:31;;;;;;;9.32;1.90;;;;;;;;;;5108970;28;20685;-78
2022/10/24 14:07:59;;;;;;;55.03;4.05;;;;;;;;;;5112581;28;20283;-78
2022/10/24 14:10:28;;;;;;;9.52;2.15;;;;;;;;;;5105754;28;20285;-77
2022/10/24 14:12:56;;;;;;;6.35;1.40;;;;;;;;;;5110351;28;20205;-77
2022/10/24 14:15:26;;;;;;;4.47;1.15;;;;;;;;;;5099284;28;20213;-77
2022/10/24 14:17:54;;;;;;;7.72;1.17;;;;;;;;;;5093118;28;20281;-77
2022/10/24 14:20:23;;;;;;;4.68;1.00;;;;;;;;;;5096242;28;20274;-77
2022/10/24 14:22:51;;;;;;;5.28;1.20;;;;;;;;;;5103908;28;20233;-77
2022/10/24 14:25:26;;;;;;;4.10;1.02;;;;;;;;;;5100458;28;20552;-78
2022/10/24 14:27:56;;;;;;;7.45;1.30;;;;;;;;;;5105136;28;20221;-78
2022/10/24 14:30:24;;;;;;;4.80;1.13;;;;;;;;;;5097949;28;20629;-77
2022/10/24 14:33:04;;;;;;;4.82;1.20;;;;;;;;;;5101759;28;20251;-77
2022/10/24 14:35:39;;;;;;;6.53;1.60;;;;;;;;;;5096709;28;20293;-77
2022/10/24 14:38:07;;;;;;;5.82;1.38;;;;;;;;;;5095437;28;20205;-77
2022/10/24 14:40:34;;;;;;;5.95;1.30;;;;;;;;;;5094095;28;20290;-77
2022/10/24 14:43:03;;;;;;;6.22;1.30;;;;;;;;;;5098794;28;20288;-77
2022/10/24 14:45:31;;;;;;;7.97;1.50;;;;;;;;;;5101940;28;20237;-77
2022/10/24 14:48:00;;;;;;;8.20;1.27;;;;;;;;;;5099467;28;20257;-76
2022/10/24 14:50:35;;;;;;;6.95;1.20;;;;;;;;;;5097308;28;20194;-76
2022/10/24 14:53:03;;;;;;;5.82;1.42;;;;;;;;;;5096931;28;20285;-76